Latest Weather Observations for Melville Water

IDW60801

Issued at 5:13 am WST Tuesday 7 December 2021 (issued every 10 minutes, with the page automatically refreshed every 10 minutes)

About weather observations | Map of weather stations | Latest weather observations for WA | Other Formats
Station Details ID: 009091 Name: INNER DOLPHIN PYLON Lat: -31.99 Lon: 115.83 Height: 0.0 m
Data from the previous 72 hours. | See also: Recent months at Melville Water
Date/Time
WST
Temp
°C
App
Temp
°C
Dew
Point
°C
Rel
Hum
%
Delta-T
°C
Wind Press
QNH
hPa
Press
MSL
hPa
Rain since
9am
mm
Dir  Spd
km/h
Gust
km/h
Spd
kts
Gust
kts
07/05:00am - - - - - E 35 48 19 26 - - -
07/04:30am - - - - - ESE 30 39 16 21 - - -
07/04:00am - - - - - ESE 39 52 21 28 - - -
07/03:30am - - - - - ESE 28 44 15 24 - - -
07/03:00am - - - - - ESE 32 46 17 25 - - -
07/02:30am - - - - - ESE 28 43 15 23 - - -
07/02:00am - - - - - ESE 28 39 15 21 - - -
07/01:30am - - - - - ESE 33 46 18 25 - - -
07/01:12am - - - - - ESE 30 48 16 26 - - -
07/01:00am - - - - - ESE 30 43 16 23 - - -
07/12:30am - - - - - ESE 28 37 15 20 - - -
07/12:04am - - - - - ESE 30 48 16 26 - - -
07/12:00am - - - - - ESE 26 41 14 22 - - -
 
Date/Time
WST
Temp
°C
App
Temp
°C
Dew
Point
°C
Rel
Hum
%
Delta-T
°C
Wind Press
QNH
hPa
Press
MSL
hPa
Rain since
9am
mm
Dir  Spd
km/h
Gust
km/h
Spd
kts
Gust
kts
06/11:30pm - - - - - ESE 30 41 16 22 - - -
06/11:00pm - - - - - ESE 37 52 20 28 - - -
06/10:30pm - - - - - ESE 35 54 19 29 - - -
06/10:21pm - - - - - ESE 32 54 17 29 - - -
06/10:00pm - - - - - ESE 37 46 20 25 - - -
06/09:36pm - - - - - ESE 33 52 18 28 - - -
06/09:30pm - - - - - ESE 37 50 20 27 - - -
06/09:00pm - - - - - ESE 41 61 22 33 - - -
06/08:30pm - - - - - ESE 37 56 20 30 - - -
06/08:28pm - - - - - ESE 35 56 19 30 - - -
06/08:00pm - - - - - SE 32 41 17 22 - - -
06/07:54pm - - - - - ESE 33 52 18 28 - - -
06/07:30pm - - - - - ESE 35 50 19 27 - - -
06/07:00pm - - - - - ESE 37 43 20 23 - - -
06/06:30pm - - - - - SE 28 39 15 21 - - -
06/06:00pm - - - - - ESE 30 43 16 23 - - -
06/05:30pm - - - - - ESE 24 32 13 17 - - -
06/05:00pm - - - - - ESE 24 33 13 18 - - -
06/04:30pm - - - - - ESE 22 30 12 16 - - -
06/04:00pm - - - - - SE 22 32 12 17 - - -
06/03:30pm - - - - - SE 19 28 10 15 - - -
06/03:00pm - - - - - SE 19 28 10 15 - - -
06/02:30pm - - - - - ESE 19 30 10 16 - - -
06/02:00pm - - - - - SE 17 26 9 14 - - -
06/01:30pm - - - - - SE 17 32 9 17 - - -
06/01:00pm - - - - - SE 19 32 10 17 - - -
06/12:30pm - - - - - SE 17 22 9 12 - - -
06/12:00pm - - - - - SE 19 28 10 15 - - -
06/11:30am - - - - - SE 15 26 8 14 - - -
06/11:00am - - - - - ESE 19 30 10 16 - - -
06/10:30am - - - - - SE 20 28 11 15 - - -
06/10:00am - - - - - ESE 22 33 12 18 - - -
06/09:30am - - - - - ESE 24 35 13 19 - - -
06/09:00am - - - - - ESE 24 32 13 17 - - -
06/08:30am - - - - - ESE 24 35 13 19 - - -
06/08:00am - - - - - ESE 24 32 13 17 - - -
06/07:30am - - - - - ESE 24 37 13 20 - - -
06/07:00am - - - - - ESE 22 30 12 16 - - -
06/06:30am - - - - - ESE 22 30 12 16 - - -
06/06:00am - - - - - ESE 28 33 15 18 - - -
06/05:30am - - - - - SE 30 39 16 21 - - -
06/05:00am - - - - - SE 24 30 13 16 - - -
06/04:30am - - - - - SE 22 28 12 15 - - -
06/04:00am - - - - - ESE 22 30 12 16 - - -
06/03:30am - - - - - E 26 35 14 19 - - -
06/03:00am - - - - - ESE 19 24 10 13 - - -
06/02:30am - - - - - ESE 22 32 12 17 - - -
06/02:00am - - - - - ESE 26 33 14 18 - - -
06/01:30am - - - - - SE 24 32 13 17 - - -
06/01:00am - - - - - SE 26 32 14 17 - - -
06/12:30am - - - - - SE 30 41 16 22 - - -
06/12:00am - - - - - SE 28 41 15 22 - - -
 
Date/Time
WST
Temp
°C
App
Temp
°C
Dew
Point
°C
Rel
Hum
%
Delta-T
°C
Wind Press
QNH
hPa
Press
MSL
hPa
Rain since
9am
mm
Dir  Spd
km/h
Gust
km/h
Spd
kts
Gust
kts
05/11:41pm - - - - - SE 28 46 15 25 - - -
05/11:30pm - - - - - SE 28 41 15 22 - - -
05/11:00pm - - - - - SE 39 48 21 26 - - -
05/10:54pm - - - - - SE 28 48 15 26 - - -
05/10:30pm - - - - - SSE 22 28 12 15 - - -
05/10:00pm - - - - - S 19 26 10 14 - - -
05/09:30pm - - - - - S 19 26 10 14 - - -
05/09:00pm - - - - - S 15 22 8 12 - - -
05/08:30pm - - - - - SSW 13 19 7 10 - - -
05/08:00pm - - - - - SSW 20 26 11 14 - - -
05/07:30pm - - - - - SSW 22 30 12 16 - - -
05/07:00pm - - - - - SSW 30 37 16 20 - - -
05/06:30pm - - - - - SSW 32 39 17 21 - - -
05/06:00pm - - - - - SSW 35 44 19 24 - - -
05/05:30pm - - - - - SSW 41 50 22 27 - - -
05/05:00pm - - - - - SSW 37 50 20 27 - - -
05/04:30pm - - - - - SSW 37 46 20 25 - - -
05/04:00pm - - - - - SSW 35 43 19 23 - - -
05/03:30pm - - - - - SSW 41 50 22 27 - - -
05/03:00pm - - - - - SSW 39 52 21 28 - - -
05/02:30pm - - - - - SSW 37 50 20 27 - - -
05/02:00pm - - - - - SW 37 43 20 23 - - -
05/01:30pm - - - - - SW 30 35 16 19 - - -
05/01:00pm - - - - - SW 33 43 18 23 - - -
05/12:30pm - - - - - SW 24 32 13 17 - - -
05/12:00pm - - - - - SW 24 30 13 16 - - -
05/11:30am - - - - - SW 20 26 11 14 - - -
05/11:00am - - - - - WSW 15 19 8 10 - - -
05/10:30am - - - - - SW 19 20 10 11 - - -
05/10:00am - - - - - SW 11 17 6 9 - - -
05/09:30am - - - - - WSW 9 11 5 6 - - -
05/09:00am - - - - - NW 6 7 3 4 - - -
05/08:30am - - - - - NNW 4 7 2 4 - - -
05/08:00am - - - - - ESE 7 11 4 6 - - -
05/07:30am - - - - - E 11 15 6 8 - - -
05/07:00am - - - - - ESE 13 19 7 10 - - -
05/06:30am - - - - - ESE 13 17 7 9 - - -
05/06:00am - - - - - ESE 17 19 9 10 - - -
05/05:30am - - - - - ESE 15 19 8 10 - - -
05/05:00am - - - - - ESE 13 17 7 9 - - -
05/04:30am - - - - - ESE 17 20 9 11 - - -
05/04:00am - - - - - ESE 19 24 10 13 - - -
05/03:30am - - - - - ESE 17 22 9 12 - - -
05/03:00am - - - - - ESE 17 19 9 10 - - -
05/02:30am - - - - - ESE 22 30 12 16 - - -
05/02:00am - - - - - ESE 13 24 7 13 - - -
05/01:30am - - - - - ESE 15 24 8 13 - - -
05/01:00am - - - - - ESE 20 30 11 16 - - -
05/12:30am - - - - - ESE 9 19 5 10 - - -
05/12:00am - - - - - SE 9 11 5 6 - - -
 
Date/Time
WST
Temp
°C
App
Temp
°C
Dew
Point
°C
Rel
Hum
%
Delta-T
°C
Wind Press
QNH
hPa
Press
MSL
hPa
Rain since
9am
mm
Dir  Spd
km/h
Gust
km/h
Spd
kts
Gust
kts
04/11:30pm - - - - - S 9 13 5 7 - - -
04/11:00pm - - - - - S 9 15 5 8 - - -
04/10:30pm - - - - - SSW 6 9 3 5 - - -
04/10:00pm - - - - - S 13 19 7 10 - - -
04/09:30pm - - - - - S 11 17 6 9 - - -
04/09:00pm - - - - - SW 9 11 5 6 - - -
04/08:30pm - - - - - SW 11 13 6 7 - - -
04/08:00pm - - - - - SSW 13 15 7 8 - - -
04/07:30pm - - - - - SSW 20 24 11 13 - - -
04/07:00pm - - - - - SSW 24 30 13 16 - - -
04/06:30pm - - - - - SSW 28 33 15 18 - - -
04/06:00pm - - - - - SSW 32 39 17 21 - - -
04/05:30pm - - - - - SSW 33 39 18 21 - - -
04/05:00pm - - - - - SSW 32 39 17 21 - - -
04/04:30pm - - - - - SSW 28 33 15 18 - - -
04/04:00pm - - - - - SW 30 37 16 20 - - -
04/03:30pm - - - - - SSW 30 39 16 21 - - -
04/03:00pm - - - - - SW 20 28 11 15 - - -
04/02:30pm - - - - - SW 26 32 14 17 - - -
04/02:00pm - - - - - SW 26 32 14 17 - - -
04/01:30pm - - - - - WSW 22 28 12 15 - - -
04/01:00pm - - - - - WSW 19 26 10 14 - - -
04/12:30pm - - - - - WSW 7 11 4 6 - - -
04/12:00pm - - - - - WSW 6 11 3 6 - - -
04/11:30am - - - - - WSW 6 9 3 5 - - -
04/11:00am - - - - - WSW 9 11 5 6 - - -
04/10:30am - - - - - WSW 7 9 4 5 - - -
04/10:00am - - - - - ENE 6 15 3 8 - - -
04/09:30am - - - - - E 9 13 5 7 - - -
04/09:00am - - - - - ESE 13 17 7 9 - - -
04/08:30am - - - - - E 22 30 12 16 - - -
04/08:00am - - - - - ESE 22 26 12 14 - - -
04/07:30am - - - - - SE 17 20 9 11 - - -
04/07:00am - - - - - SE 15 20 8 11 - - -
04/06:30am - - - - - E 22 26 12 14 - - -
04/06:00am - - - - - ESE 20 30 11 16 - - -
04/05:30am - - - - - E 20 24 11 13 - - -

Other formats

Comma delimited format used in spreadsheet applications
http://www.bom.gov.au/fwo/IDW60801/IDW60801.95620.axf

JavaScript Object Notation format (JSON) in row-major order
http://www.bom.gov.au/fwo/IDW60801/IDW60801.95620.json

Data quality

Most of these data are generated automatically and are frequently updated. Quality checks on data are not normally performed. It is possible for incorrect values to appear. Refer to information at About Latest Weather Observations and please check the disclaimer before using these data.